الصفحة الرئيسية
METAR-TAF:

METAR-TAF

مطار :

Tôlanaro, مدغشقر

دائرة عرض: 25-02S, خط طول: 046-57E, ارتفاع: 8 متر

مراقبة الطقس الحالي

تاريخ ووقت الإصدار 34 دقيقة قبل الساعة 18:00UTC
ريح 8 عقدة من الشرق/الشمال الشرقي
درجة الحرارة 24°درجة مئوية
الرطوبة 94%
ضغط 1013 hPa
الرؤية 10 كم أو أكثر
غيوم متفرقة على ارتفاع 1600 قدم
غيوم مفككة على ارتفاع 3300 قدم
زخات في الجوار

METAR: FMSD 011800Z 06008KT 9999 VCSH SCT016 BKN033 24/23 Q1013 RERA

زمن: 21:34 (18:34 UTC)

توقعات

تاريخ ووقت الإصدار 1ساعة و 34 دقيقة قبل الساعة 17:00UTC
التوقعات صالحة من01 الساعة 18 UTC إلى 02 الساعة 18 UTC
ريح 10 عقدة من الجنوب/الجنوب الشرقي
الرؤية: 9000 متر
غيوم متفرقة على ارتفاع 1600 قدم
غيوم مفككة على ارتفاع 3300 قدم
مؤقت
من 01 الساعة 18 UTC إلى 02 الساعة 18 UTC
الرؤية: 4000 متر
مطر

TAF: FMSD 011700Z 0118/0218 16010KT 9000 SCT016 BKN033 TEMPO 0118/0218 4000 RA

أرصاد الطقس والتوقعات من أكثر من 4000 مطار (تقارير الطقس للمطار METAR والتنبؤ بالطقس بالمطارTAF).

المحطات المتاحة هي النقط الصفراء والحمراء على الخريطة.

حرك المؤشر فوق النقطة لمعرفة اسم المحطة.

ثم انقر لمعرفة أرصاد وتوقعات الطقس.

لتغيير الخارطة: اضغط على الأزرار الخضراء مع رمز الصليب الأسود للتكبير. على الزر الأخضر مع شرطة للتصغير، أو على الأسهم الخضراء للخرائط المجاورة.


METAR-TAF: